createdAt,value
2018-12-08T00:02:04.119Z,98902.77
2018-12-08T00:07:07.402Z,98912.51
2018-12-08T00:12:10.686Z,98934.98
2018-12-08T00:17:13.970Z,98945.84
2018-12-08T00:22:17.253Z,98968.12
2018-12-08T00:48:25.741Z,98976.87
2018-12-08T00:53:29.114Z,99000.77
2018-12-08T00:58:32.414Z,99008.33
2018-12-08T01:03:35.802Z,99023.74
2018-12-08T01:08:39.095Z,99032.10
2018-12-08T01:13:42.386Z,99042.49
2018-12-08T01:18:45.687Z,99050.42
2018-12-08T01:23:48.985Z,99059.28
2018-12-08T01:28:52.274Z,99072.05
2018-12-08T01:33:55.558Z,99085.45
2018-12-08T01:38:58.854Z,99093.08
2018-12-08T01:44:02.168Z,99085.30
2018-12-08T01:49:05.565Z,99086.95
2018-12-08T01:54:08.857Z,99079.87
2018-12-08T01:59:12.141Z,99076.19
2018-12-08T02:04:15.454Z,99079.30
2018-12-08T02:09:18.747Z,99072.41
2018-12-08T02:14:22.037Z,99061.67
2018-12-08T02:19:25.330Z,99058.39
2018-12-08T02:24:28.617Z,99070.27
2018-12-08T02:29:31.905Z,99083.92
2018-12-08T02:34:35.354Z,99102.35
2018-12-08T02:39:38.627Z,99112.05
2018-12-08T02:44:41.921Z,99126.22
2018-12-08T02:49:45.198Z,99118.13
2018-12-08T02:54:48.478Z,99110.94
2018-12-08T02:59:51.754Z,99100.63
2018-12-08T03:04:55.044Z,99106.64
2018-12-08T03:09:58.326Z,99110.44
2018-12-08T03:15:02.133Z,99121.16
2018-12-08T03:20:05.784Z,99120.12
2018-12-08T03:25:09.065Z,99134.14
2018-12-08T03:30:12.365Z,99148.20
2018-12-08T03:35:15.663Z,99145.17
2018-12-08T03:40:18.942Z,99163.59
2018-12-08T03:45:22.222Z,99173.13
2018-12-08T03:50:25.503Z,99182.16
2018-12-08T03:55:28.790Z,99193.50
2018-12-08T04:00:32.072Z,99207.39
2018-12-08T04:05:35.363Z,99211.06
2018-12-08T04:10:38.649Z,99229.14
2018-12-08T04:15:41.926Z,99226.11
2018-12-08T04:20:45.217Z,99241.84
2018-12-08T04:25:48.513Z,99246.36
2018-12-08T04:30:51.802Z,99243.33
2018-12-08T04:35:55.090Z,99261.74
2018-12-08T04:40:58.367Z,99256.50
2018-12-08T04:46:01.654Z,99269.20
2018-12-08T04:51:04.931Z,99282.11
2018-12-08T04:56:08.206Z,99284.79
2018-12-08T05:01:11.611Z,99281.06
2018-12-08T05:06:14.890Z,99294.31
2018-12-08T05:11:18.170Z,99298.13
2018-12-08T05:16:21.451Z,99294.26
2018-12-08T05:21:24.805Z,99309.00
2018-12-08T05:26:28.074Z,99309.00
2018-12-08T05:31:31.430Z,99317.15
2018-12-08T05:36:34.744Z,99314.96
2018-12-08T05:41:38.034Z,99309.75
2018-12-08T05:46:41.307Z,99312.66
2018-12-08T05:51:44.613Z,99321.45
2018-12-08T05:56:47.890Z,99321.11
2018-12-08T06:01:51.166Z,99323.09
2018-12-08T06:06:54.519Z,99310.53
2018-12-08T06:11:57.846Z,99298.47
2018-12-08T06:17:01.123Z,99293.75
2018-12-08T06:22:04.402Z,99302.14
2018-12-08T06:28:22.570Z,99314.91
2018-12-08T06:33:25.849Z,99313.00
2018-12-08T06:38:29.130Z,99303.73
2018-12-08T06:43:32.402Z,99297.91
2018-12-08T06:48:35.703Z,99291.22
2018-12-08T06:53:38.977Z,99296.97
2018-12-08T06:58:42.261Z,99304.17
2018-12-08T07:03:45.573Z,99305.16
2018-12-08T07:08:48.874Z,99310.16
2018-12-08T07:13:52.154Z,99308.33
2018-12-08T07:18:55.429Z,99314.68
2018-12-08T07:23:58.707Z,99315.17
2018-12-08T07:29:01.987Z,99320.73
2018-12-08T07:34:05.257Z,99318.91
2018-12-08T07:39:08.542Z,99314.44
2018-12-08T07:44:12.001Z,99314.02
2018-12-08T07:49:15.299Z,99304.44
2018-12-08T07:54:18.583Z,99313.36
2018-12-08T07:59:21.870Z,99332.00
2018-12-08T08:04:25.150Z,99320.41
2018-12-08T08:09:28.440Z,99290.43
2018-12-08T08:14:31.717Z,99277.05
2018-12-08T08:19:34.994Z,99270.75
2018-12-08T08:24:38.286Z,99256.94
2018-12-08T08:29:41.583Z,99259.86
2018-12-08T08:34:44.870Z,99261.95
2018-12-08T08:39:48.163Z,99261.79
2018-12-08T08:44:51.438Z,99251.58
2018-12-08T08:49:54.769Z,99250.09
2018-12-08T08:54:58.114Z,99254.05
2018-12-08T09:00:01.424Z,99256.30
2018-12-08T09:05:06.779Z,99254.45
2018-12-08T09:10:11.399Z,99251.78
2018-12-08T09:15:14.684Z,99251.57
2018-12-08T09:20:18.045Z,99242.84
2018-12-08T09:25:21.358Z,99230.69
2018-12-08T09:30:25.266Z,99226.95
2018-12-08T09:35:28.577Z,99222.59
2018-12-08T09:40:31.880Z,99217.03
2018-12-08T09:45:41.777Z,99209.39
2018-12-08T09:50:40.559Z,99205.66
2018-12-08T09:55:43.844Z,99191.57
2018-12-08T10:00:47.383Z,99187.41
2018-12-08T10:05:50.682Z,99172.02
2018-12-08T10:10:53.967Z,99172.31
2018-12-08T10:15:57.255Z,99159.95
2018-12-08T10:21:00.544Z,99141.60
2018-12-08T10:26:03.862Z,99158.66
2018-12-08T10:31:07.162Z,99151.70
2018-12-08T10:36:10.446Z,99139.98
2018-12-08T10:41:13.731Z,99137.08
2018-12-08T10:46:17.058Z,99139.87
2018-12-08T10:51:20.339Z,99123.52
2018-12-08T10:56:23.678Z,99129.08
2018-12-08T11:01:31.155Z,99118.63
2018-12-08T11:06:34.439Z,99114.69
2018-12-08T11:11:37.726Z,99122.92
2018-12-08T11:16:41.009Z,99116.95
2018-12-08T11:21:44.993Z,99107.06
2018-12-08T11:26:48.270Z,99095.19
2018-12-08T11:31:51.548Z,99078.02
2018-12-08T11:36:54.845Z,99064.80
2018-12-08T11:41:59.438Z,99063.84
2018-12-08T11:47:04.242Z,99060.54
2018-12-08T11:52:07.522Z,99051.84
2018-12-08T11:57:10.860Z,99052.19
2018-12-08T12:02:16.636Z,99046.61
2018-12-08T12:07:19.941Z,99022.71
2018-12-08T12:12:23.262Z,99020.44
2018-12-08T12:17:26.546Z,99017.05
2018-12-08T12:22:29.826Z,99014.23
2018-12-08T12:27:33.114Z,98995.63
2018-12-08T12:32:36.421Z,99004.16
2018-12-08T12:37:39.705Z,98999.02
2018-12-08T12:42:42.986Z,99001.92
2018-12-08T12:47:46.362Z,99019.02
2018-12-08T12:52:49.638Z,99014.69
2018-12-08T12:57:52.914Z,99015.18
2018-12-08T13:02:56.186Z,99012.84
2018-12-08T13:07:59.486Z,99002.27
2018-12-08T13:13:02.766Z,98980.31
2018-12-08T13:18:06.078Z,98981.16
2018-12-08T13:23:09.358Z,98980.31
2018-12-08T13:28:12.643Z,98984.84
2018-12-08T13:33:15.919Z,98988.05
2018-12-08T13:38:19.286Z,98994.57
2018-12-08T13:43:22.605Z,98977.48
2018-12-08T13:48:27.305Z,98964.41
2018-12-08T13:53:36.650Z,98958.02
2018-12-08T13:58:35.926Z,98971.27
2018-12-08T14:03:39.205Z,98968.94
2018-12-08T14:08:42.507Z,98975.11
2018-12-08T14:13:45.791Z,98979.84
2018-12-08T14:18:49.065Z,98971.61
2018-12-08T14:23:52.518Z,98967.25
2018-12-08T14:28:55.863Z,98970.27
2018-12-08T14:33:59.530Z,98976.30
2018-12-08T14:39:02.826Z,98981.00
2018-12-08T14:44:06.121Z,98973.95
2018-12-08T14:49:09.430Z,98978.98
2018-12-08T14:54:12.725Z,98972.27
2018-12-08T14:59:16.055Z,98974.95
2018-12-08T15:04:19.370Z,98985.62
2018-12-08T15:09:22.681Z,98987.40
2018-12-08T15:14:25.994Z,98985.40
2018-12-08T15:19:29.305Z,98977.23
2018-12-08T15:24:32.611Z,98977.73
2018-12-08T15:29:35.918Z,98973.02
2018-12-08T15:34:39.230Z,98979.73
2018-12-08T15:39:42.538Z,98979.56
2018-12-08T15:44:45.839Z,98982.78
2018-12-08T15:49:49.134Z,98977.57
2018-12-08T15:54:52.421Z,98991.30
2018-12-08T15:59:55.716Z,98986.28
2018-12-08T16:04:59.019Z,98978.88
2018-12-08T16:10:05.144Z,98992.23
2018-12-08T16:15:09.522Z,98986.93
2018-12-08T16:20:13.646Z,98989.23
2018-12-08T16:25:16.931Z,98991.73
2018-12-08T16:30:20.212Z,98995.07
2018-12-08T16:35:23.485Z,98994.53
2018-12-08T16:40:26.762Z,98996.16
2018-12-08T16:45:30.057Z,98999.34
2018-12-08T16:50:33.321Z,98995.73
2018-12-08T16:55:36.616Z,98995.74
2018-12-08T17:00:39.898Z,98991.87
2018-12-08T17:05:43.190Z,98980.91
2018-12-08T17:10:46.470Z,98982.02
2018-12-08T17:15:49.898Z,98974.63
2018-12-08T17:20:53.176Z,98957.95
2018-12-08T17:25:56.621Z,98955.52
2018-12-08T17:30:59.941Z,98966.68
2018-12-08T17:36:03.218Z,98961.92
2018-12-08T17:41:06.518Z,98958.58
2018-12-08T17:46:09.826Z,98948.70
2018-12-08T17:51:13.127Z,98941.36
2018-12-08T17:56:16.418Z,98944.88
2018-12-08T18:01:19.729Z,98933.87
2018-12-08T18:06:23.197Z,98922.70
2018-12-08T18:11:26.495Z,98924.78
2018-12-08T18:16:29.981Z,98921.97
2018-12-08T18:21:33.602Z,98931.16
2018-12-08T18:26:37.077Z,98930.49
2018-12-08T18:31:40.390Z,98930.20
2018-12-08T18:36:43.699Z,98918.62
2018-12-08T18:41:46.990Z,98917.13
2018-12-08T18:46:50.273Z,98914.64
2018-12-08T18:51:53.589Z,98907.59
2018-12-08T18:56:56.873Z,98902.44
2018-12-08T19:02:00.163Z,98894.05
2018-12-08T19:07:03.538Z,98879.05
2018-12-08T19:12:06.917Z,98870.61
2018-12-08T19:17:10.283Z,98861.55
2018-12-08T19:22:13.606Z,98860.38
2018-12-08T19:27:16.899Z,98840.14
2018-12-08T19:32:20.193Z,98839.52
2018-12-08T19:37:23.502Z,98833.44
2018-12-08T19:42:26.789Z,98830.95
2018-12-08T19:47:30.078Z,98816.71
2018-12-08T19:52:33.363Z,98807.07
2018-12-08T19:57:36.675Z,98791.08
2018-12-08T20:02:39.975Z,98787.39
2018-12-08T20:07:44.630Z,98775.47
2018-12-08T20:12:47.922Z,98751.80
2018-12-08T20:17:51.201Z,98744.70
2018-12-08T20:22:54.494Z,98738.66
2018-12-08T20:27:57.773Z,98742.86
2018-12-08T20:33:01.074Z,98721.37
2018-12-08T20:38:04.368Z,98718.16
2018-12-08T20:43:07.966Z,98726.51
2018-12-08T20:48:11.310Z,98731.04
2018-12-08T20:53:15.130Z,98724.12
2018-12-08T20:58:18.498Z,98704.45
2018-12-08T21:03:21.786Z,98702.56
2018-12-08T21:08:25.094Z,98679.58
2018-12-08T21:13:28.381Z,98661.13
2018-12-08T21:18:31.663Z,98656.09
2018-12-08T21:23:34.952Z,98635.29
2018-12-08T21:28:38.263Z,98636.77
2018-12-08T21:33:41.550Z,98625.99
2018-12-08T21:38:44.834Z,98612.57
2018-12-08T21:43:48.145Z,98585.20
2018-12-08T21:48:51.601Z,98570.48
2018-12-08T21:53:54.927Z,98556.22
2018-12-08T21:58:58.229Z,98537.94
2018-12-08T22:04:01.519Z,98526.38
2018-12-08T22:09:05.777Z,98513.63
2018-12-08T22:14:09.065Z,98482.91
2018-12-08T22:19:12.338Z,98460.44
2018-12-08T22:24:15.622Z,98443.85
2018-12-08T22:29:18.898Z,98433.12
2018-12-08T22:34:22.174Z,98422.55
2018-12-08T22:39:25.494Z,98411.66
2018-12-08T22:44:28.874Z,98401.09
2018-12-08T22:49:32.173Z,98396.55
2018-12-08T22:54:35.457Z,98383.30
2018-12-08T22:59:38.738Z,98378.61
2018-12-08T23:04:42.029Z,98350.13
2018-12-08T23:09:45.325Z,98326.80
2018-12-08T23:14:48.611Z,98322.94
2018-12-08T23:19:51.903Z,98312.55
2018-12-08T23:24:55.205Z,98298.13
2018-12-08T23:29:58.477Z,98290.09
2018-12-08T23:35:01.770Z,98273.33
2018-12-08T23:40:06.600Z,98247.02
2018-12-08T23:45:09.887Z,98224.21
2018-12-08T23:50:13.179Z,98204.93
2018-12-08T23:55:16.461Z,98183.65
